createdAt,value
2022-12-31T00:01:15.191Z,7.25
2022-12-31T00:04:06.620Z,6.18
2022-12-31T00:06:51.837Z,5.55
2022-12-31T00:09:37.371Z,5.22
2022-12-31T00:12:23.016Z,5.32
2022-12-31T00:15:08.894Z,5.50
2022-12-31T00:17:57.397Z,4.50
2022-12-31T00:20:42.804Z,4.85
2022-12-31T00:23:30.309Z,4.28
2022-12-31T00:26:18.272Z,5.05
2022-12-31T00:29:10.600Z,4.93
2022-12-31T00:31:55.960Z,4.47
2022-12-31T00:34:41.568Z,4.40
2022-12-31T00:37:37.465Z,4.22
2022-12-31T00:40:22.974Z,3.67
2022-12-31T00:43:08.289Z,3.63
2022-12-31T00:45:53.901Z,4.45
2022-12-31T00:48:39.438Z,3.60
2022-12-31T00:51:27.479Z,3.63
2022-12-31T00:54:14.603Z,4.20
2022-12-31T00:57:00.349Z,4.78
2022-12-31T00:59:45.707Z,3.95
2022-12-31T01:02:34.112Z,3.90
2022-12-31T01:05:19.720Z,3.95
2022-12-31T01:08:05.694Z,3.92
2022-12-31T01:11:10.246Z,3.97
2022-12-31T01:14:14.222Z,3.55
2022-12-31T01:16:59.565Z,4.65
2022-12-31T01:19:45.110Z,3.90
2022-12-31T01:22:30.284Z,3.90
2022-12-31T01:25:16.216Z,3.40
2022-12-31T01:28:01.783Z,3.45
2022-12-31T01:30:49.853Z,3.53
2022-12-31T01:33:35.655Z,3.17
2022-12-31T01:36:26.204Z,3.75
2022-12-31T01:39:12.711Z,3.67
2022-12-31T01:41:58.469Z,3.20
2022-12-31T01:44:54.306Z,2.92
2022-12-31T01:47:48.030Z,3.05
2022-12-31T01:50:35.570Z,3.40
2022-12-31T01:53:21.775Z,3.20
2022-12-31T01:56:07.785Z,3.95
2022-12-31T01:58:57.087Z,2.92
2022-12-31T02:01:42.857Z,2.50
2022-12-31T02:04:31.934Z,2.55
2022-12-31T02:07:17.331Z,2.97
2022-12-31T02:10:05.704Z,2.53
2022-12-31T02:12:57.809Z,2.38
2022-12-31T02:16:08.347Z,2.67
2022-12-31T02:19:07.179Z,2.85
2022-12-31T02:22:10.720Z,3.42
2022-12-31T02:25:26.092Z,3.78
2022-12-31T02:28:39.287Z,3.80
2022-12-31T02:31:35.941Z,3.25
2022-12-31T02:34:50.698Z,4.05
2022-12-31T02:37:37.939Z,3.65
2022-12-31T02:40:24.066Z,3.80
2022-12-31T02:43:12.479Z,3.50
2022-12-31T02:46:00.500Z,3.55
2022-12-31T02:48:53.601Z,3.75
2022-12-31T02:52:17.685Z,3.80
2022-12-31T02:55:31.121Z,3.80
2022-12-31T02:58:57.533Z,3.95
2022-12-31T03:04:54.938Z,4.38
2022-12-31T03:07:41.986Z,3.90
2022-12-31T03:10:27.476Z,3.75
2022-12-31T03:13:13.108Z,3.47
2022-12-31T03:15:58.529Z,3.75
2022-12-31T03:19:03.499Z,4.30
2022-12-31T03:22:07.540Z,3.60
2022-12-31T03:25:11.257Z,4.05
2022-12-31T03:27:56.783Z,4.22
2022-12-31T03:30:45.059Z,3.05
2022-12-31T03:33:37.711Z,2.92
2022-12-31T03:36:26.365Z,3.30
2022-12-31T03:39:11.991Z,3.45
2022-12-31T03:41:57.491Z,3.95
2022-12-31T03:44:42.981Z,3.92
2022-12-31T03:47:28.624Z,4.20
2022-12-31T03:50:16.727Z,3.78
2022-12-31T03:53:09.028Z,3.90
2022-12-31T03:55:55.665Z,4.03
2022-12-31T03:58:41.035Z,3.95
2022-12-31T04:01:26.791Z,4.35
2022-12-31T04:04:12.004Z,4.22
2022-12-31T04:06:57.472Z,4.22
2022-12-31T04:09:42.849Z,4.00
2022-12-31T04:12:28.356Z,4.03
2022-12-31T04:15:19.787Z,4.95
2022-12-31T04:18:05.464Z,4.80
2022-12-31T04:20:50.912Z,5.53
2022-12-31T04:23:36.106Z,5.97
2022-12-31T04:26:21.726Z,5.32
2022-12-31T04:29:07.054Z,6.72
2022-12-31T04:31:52.852Z,6.78
2022-12-31T04:34:38.099Z,8.07
2022-12-31T04:37:23.454Z,8.93
2022-12-31T04:40:09.603Z,9.63
2022-12-31T04:42:55.055Z,10.77
2022-12-31T04:45:40.707Z,12.30
2022-12-31T04:48:26.895Z,13.25
2022-12-31T04:51:13.258Z,15.00
2022-12-31T04:53:59.450Z,16.92
2022-12-31T04:56:45.217Z,15.82
2022-12-31T04:59:30.483Z,17.67
2022-12-31T05:02:18.795Z,18.00
2022-12-31T05:05:04.766Z,17.63
2022-12-31T05:07:50.036Z,15.80
2022-12-31T05:10:41.130Z,15.07
2022-12-31T05:13:33.412Z,12.57
2022-12-31T05:16:19.082Z,13.65
2022-12-31T05:19:06.474Z,9.95
2022-12-31T05:22:11.981Z,11.05
2022-12-31T05:24:58.764Z,8.90
2022-12-31T05:27:45.443Z,8.00
2022-12-31T05:30:31.038Z,7.35
2022-12-31T05:33:16.306Z,5.60
2022-12-31T05:36:01.840Z,4.20
2022-12-31T05:38:47.305Z,3.78
2022-12-31T05:41:32.916Z,3.15
2022-12-31T05:44:19.092Z,3.00
2022-12-31T05:47:07.858Z,2.85
2022-12-31T05:49:53.833Z,2.70
2022-12-31T05:52:39.177Z,2.60
2022-12-31T05:55:24.771Z,2.55
2022-12-31T05:58:10.273Z,2.58
2022-12-31T06:00:57.107Z,2.75
2022-12-31T06:03:42.290Z,2.60
2022-12-31T06:06:27.600Z,3.17
2022-12-31T06:09:14.676Z,4.38
2022-12-31T06:12:00.191Z,4.60
2022-12-31T06:14:46.045Z,4.53
2022-12-31T06:17:32.828Z,4.78
2022-12-31T06:20:18.900Z,5.75
2022-12-31T06:23:05.527Z,7.13
2022-12-31T06:25:51.268Z,7.78
2022-12-31T06:28:39.501Z,7.95
2022-12-31T06:31:24.733Z,6.70
2022-12-31T06:34:10.181Z,7.32
2022-12-31T06:36:55.750Z,7.10
2022-12-31T06:39:41.208Z,7.95
2022-12-31T06:42:33.787Z,7.60
2022-12-31T06:45:20.190Z,7.13
2022-12-31T06:48:09.033Z,4.30
2022-12-31T06:50:57.651Z,3.60
2022-12-31T06:53:43.754Z,3.53
2022-12-31T06:56:34.542Z,2.90
2022-12-31T06:59:30.836Z,2.75
2022-12-31T07:02:25.130Z,2.30
2022-12-31T07:05:28.146Z,2.22
2022-12-31T07:08:40.996Z,2.40
2022-12-31T07:11:52.561Z,2.30
2022-12-31T07:14:46.259Z,2.65
2022-12-31T07:17:31.486Z,1.70
2022-12-31T07:20:18.888Z,1.55
2022-12-31T07:23:04.501Z,1.60
2022-12-31T07:26:16.181Z,1.65
2022-12-31T07:29:15.868Z,1.95
2022-12-31T07:32:22.004Z,1.50
2022-12-31T07:35:35.287Z,1.83
2022-12-31T07:38:52.852Z,1.80
2022-12-31T07:41:59.811Z,2.78
2022-12-31T07:45:17.166Z,2.28
2022-12-31T07:48:14.400Z,2.60
2022-12-31T07:51:00.276Z,2.40
2022-12-31T07:53:45.640Z,2.83
2022-12-31T07:56:35.851Z,1.98
2022-12-31T07:59:24.413Z,2.80
2022-12-31T08:02:40.189Z,1.70
2022-12-31T08:05:30.174Z,1.63
2022-12-31T08:08:23.383Z,1.77
2022-12-31T08:11:26.666Z,1.60
2022-12-31T08:14:14.793Z,1.60
2022-12-31T08:17:00.609Z,1.98
2022-12-31T08:19:48.682Z,2.15
2022-12-31T08:23:06.352Z,1.70
2022-12-31T08:26:20.579Z,1.45
2022-12-31T08:29:37.167Z,1.77
2022-12-31T08:32:43.714Z,2.20
2022-12-31T08:36:06.686Z,2.08
2022-12-31T08:39:35.685Z,2.25
2022-12-31T08:42:46.567Z,2.00
2022-12-31T08:45:52.977Z,2.95
2022-12-31T08:48:41.254Z,3.10
2022-12-31T08:51:27.643Z,2.80
2022-12-31T08:54:13.683Z,3.08
2022-12-31T08:57:23.993Z,2.72
2022-12-31T09:00:15.764Z,3.08
2022-12-31T09:03:26.977Z,3.70
2022-12-31T09:06:18.346Z,5.15
2022-12-31T09:09:28.361Z,3.90
2022-12-31T09:12:35.609Z,3.83
2022-12-31T09:15:36.482Z,5.15
2022-12-31T09:18:22.132Z,3.15
2022-12-31T09:21:10.457Z,3.83
2022-12-31T09:23:55.937Z,4.00
2022-12-31T09:27:04.154Z,3.58
2022-12-31T09:30:16.592Z,2.90
2022-12-31T09:33:21.343Z,3.00
2022-12-31T09:36:12.036Z,3.30
2022-12-31T09:39:27.090Z,2.35
2022-12-31T09:42:26.799Z,2.10
2022-12-31T09:45:59.045Z,2.40
2022-12-31T09:49:18.652Z,2.78
2022-12-31T09:52:15.699Z,2.28
2022-12-31T09:55:07.815Z,2.63
2022-12-31T09:57:56.336Z,2.42
2022-12-31T10:00:50.291Z,2.33
2022-12-31T10:04:11.740Z,1.67
2022-12-31T10:07:30.635Z,2.03
2022-12-31T10:10:26.050Z,2.72
2022-12-31T10:13:36.963Z,2.25
2022-12-31T10:17:00.248Z,2.40
2022-12-31T10:19:54.893Z,2.20
2022-12-31T10:23:03.692Z,2.05
2022-12-31T10:26:05.754Z,2.22
2022-12-31T10:29:28.662Z,2.22
2022-12-31T10:32:36.651Z,2.42
2022-12-31T10:35:40.977Z,2.30
2022-12-31T10:39:20.493Z,1.77
2022-12-31T10:42:34.705Z,3.25
2022-12-31T10:45:41.801Z,2.70
2022-12-31T10:48:29.851Z,3.65
2022-12-31T10:51:34.006Z,2.60
2022-12-31T10:54:56.994Z,2.88
2022-12-31T10:58:16.244Z,2.17
2022-12-31T11:01:13.240Z,3.25
2022-12-31T11:04:21.012Z,2.75
2022-12-31T11:07:32.205Z,2.95
2022-12-31T11:10:23.956Z,2.50
2022-12-31T11:13:41.233Z,2.10
2022-12-31T11:16:48.564Z,2.25
2022-12-31T11:20:07.794Z,2.63
2022-12-31T11:23:30.770Z,3.13
2022-12-31T11:26:49.283Z,2.72
2022-12-31T11:30:01.321Z,2.47
2022-12-31T11:33:15.426Z,2.33
2022-12-31T11:36:03.602Z,3.35
2022-12-31T11:39:02.917Z,3.85
2022-12-31T11:42:19.142Z,3.28
2022-12-31T11:45:18.346Z,3.47
2022-12-31T11:48:32.523Z,3.72
2022-12-31T11:51:48.433Z,4.10
2022-12-31T11:55:07.421Z,4.30
2022-12-31T11:57:53.362Z,3.45
2022-12-31T12:00:42.051Z,3.38
2022-12-31T12:03:27.750Z,3.75
2022-12-31T12:06:18.421Z,3.20
2022-12-31T12:09:07.532Z,3.33
2022-12-31T12:12:05.287Z,4.38
2022-12-31T12:14:56.013Z,3.13
2022-12-31T12:17:41.222Z,3.10
2022-12-31T12:20:47.121Z,3.63
2022-12-31T12:23:33.043Z,3.05
2022-12-31T12:26:37.472Z,2.80
2022-12-31T12:29:34.477Z,3.38
2022-12-31T12:32:22.688Z,3.28
2022-12-31T12:35:16.469Z,2.88
2022-12-31T12:38:10.496Z,2.90
2022-12-31T12:41:05.348Z,3.90
2022-12-31T12:44:01.218Z,3.10
2022-12-31T12:46:49.167Z,3.15
2022-12-31T12:49:46.599Z,2.65
2022-12-31T12:52:44.614Z,3.78
2022-12-31T12:55:36.296Z,3.60
2022-12-31T12:58:24.753Z,4.00
2022-12-31T13:01:31.245Z,4.10
2022-12-31T13:04:36.209Z,4.13
2022-12-31T13:07:42.913Z,3.78
2022-12-31T13:10:58.465Z,3.38
2022-12-31T13:14:16.150Z,3.60
2022-12-31T13:17:07.541Z,4.22
2022-12-31T13:20:02.129Z,4.03
2022-12-31T13:23:17.125Z,4.38
2022-12-31T13:26:21.524Z,4.90
2022-12-31T13:29:17.145Z,3.75
2022-12-31T13:32:08.184Z,4.78
2022-12-31T13:35:15.405Z,5.28
2022-12-31T13:38:06.072Z,4.35
2022-12-31T13:41:21.699Z,5.00
2022-12-31T13:44:36.881Z,4.38
2022-12-31T13:47:39.903Z,3.78
2022-12-31T13:50:42.415Z,4.25
2022-12-31T13:53:38.725Z,5.30
2022-12-31T13:56:29.395Z,4.00
2022-12-31T13:59:19.018Z,3.55
2022-12-31T14:02:16.787Z,4.10
2022-12-31T14:05:18.756Z,4.72
2022-12-31T14:08:06.570Z,4.00
2022-12-31T14:11:17.876Z,3.85
2022-12-31T14:14:14.964Z,6.03
2022-12-31T14:17:30.586Z,4.70
2022-12-31T14:20:24.106Z,4.65
2022-12-31T14:23:23.681Z,4.47
2022-12-31T14:26:27.714Z,4.68
2022-12-31T14:29:22.711Z,8.25
2022-12-31T14:32:40.083Z,6.43
2022-12-31T14:35:41.562Z,6.72
2022-12-31T14:38:44.988Z,5.22
2022-12-31T14:41:52.452Z,5.30
2022-12-31T14:44:44.570Z,4.30
2022-12-31T14:47:51.824Z,4.78
2022-12-31T14:50:38.257Z,6.82
2022-12-31T14:53:26.791Z,6.20
2022-12-31T14:56:43.428Z,9.27
2022-12-31T14:59:34.421Z,7.75
2022-12-31T15:02:31.122Z,7.82
2022-12-31T15:05:25.256Z,6.43
2022-12-31T15:08:38.806Z,7.68
2022-12-31T15:11:37.859Z,6.20
2022-12-31T15:14:54.504Z,5.63
2022-12-31T15:17:55.837Z,5.15
2022-12-31T15:20:51.376Z,7.07
2022-12-31T15:26:31.495Z,6.45
2022-12-31T15:29:45.287Z,5.80
2022-12-31T15:32:41.600Z,11.73
2022-12-31T15:35:33.877Z,5.25
2022-12-31T15:38:30.276Z,5.18
2022-12-31T15:41:26.771Z,4.00
2022-12-31T15:44:21.022Z,4.60
2022-12-31T15:47:48.935Z,5.65
2022-12-31T15:50:36.927Z,6.82
2022-12-31T15:53:31.397Z,8.32
2022-12-31T15:56:22.306Z,17.92
2022-12-31T15:59:14.072Z,5.07
2022-12-31T16:01:59.643Z,6.35
2022-12-31T16:04:45.690Z,6.47
2022-12-31T16:07:32.077Z,5.82
2022-12-31T16:10:30.152Z,5.93
2022-12-31T16:13:24.841Z,4.93
2022-12-31T16:16:50.901Z,4.50
2022-12-31T16:22:39.827Z,6.18
2022-12-31T16:25:32.065Z,5.60
2022-12-31T16:28:26.351Z,5.30
2022-12-31T16:31:17.208Z,6.57
2022-12-31T16:34:16.614Z,5.93
2022-12-31T16:37:07.860Z,4.35
2022-12-31T16:39:56.318Z,12.32
2022-12-31T16:42:44.574Z,6.40
2022-12-31T16:45:38.664Z,4.72
2022-12-31T16:48:24.975Z,5.40
2022-12-31T16:51:18.259Z,4.65
2022-12-31T16:54:07.598Z,4.50
2022-12-31T16:56:54.532Z,7.07
2022-12-31T16:59:44.163Z,5.65
2022-12-31T17:02:40.741Z,5.97
2022-12-31T17:05:28.039Z,5.38
2022-12-31T17:08:29.035Z,5.80
2022-12-31T17:11:42.723Z,5.43
2022-12-31T17:14:30.390Z,5.15
2022-12-31T17:17:23.734Z,4.60
2022-12-31T17:20:19.803Z,4.18
2022-12-31T17:23:08.427Z,8.43
2022-12-31T17:26:00.246Z,6.82
2022-12-31T17:28:48.792Z,4.55
2022-12-31T17:31:37.636Z,4.82
2022-12-31T17:34:33.449Z,7.57
2022-12-31T17:37:24.952Z,6.47
2022-12-31T17:40:52.781Z,5.93
2022-12-31T17:43:39.781Z,6.35
2022-12-31T17:46:27.551Z,4.85
2022-12-31T17:49:16.787Z,5.32
2022-12-31T17:52:14.536Z,6.05
2022-12-31T17:55:00.091Z,5.35
2022-12-31T17:57:59.890Z,8.90
2022-12-31T18:00:48.191Z,6.70
2022-12-31T18:03:33.969Z,5.50
2022-12-31T18:06:19.708Z,5.75
2022-12-31T18:09:05.459Z,5.75
2022-12-31T18:11:52.563Z,5.43
2022-12-31T18:14:42.486Z,5.13
2022-12-31T18:17:28.834Z,4.45
2022-12-31T18:20:15.201Z,5.05
2022-12-31T18:23:00.928Z,6.72
2022-12-31T18:28:30.810Z,5.65
2022-12-31T18:31:30.717Z,4.90
2022-12-31T18:34:17.999Z,5.18
2022-12-31T18:37:15.171Z,5.32
2022-12-31T18:40:05.600Z,5.38
2022-12-31T18:42:51.415Z,12.40
2022-12-31T18:45:36.907Z,7.05
2022-12-31T18:48:22.432Z,6.80
2022-12-31T18:51:17.161Z,4.90
2022-12-31T18:54:03.796Z,6.18
2022-12-31T18:56:55.316Z,6.80
2022-12-31T18:59:46.879Z,5.85
2022-12-31T19:02:35.035Z,5.82
2022-12-31T19:05:26.437Z,6.22
2022-12-31T19:08:12.602Z,6.15
2022-12-31T19:10:57.965Z,7.50
2022-12-31T19:13:43.673Z,6.05
2022-12-31T19:16:29.279Z,4.93
2022-12-31T19:19:15.523Z,4.70
2022-12-31T19:22:03.670Z,5.88
2022-12-31T19:24:48.953Z,4.68
2022-12-31T19:27:35.580Z,5.45
2022-12-31T19:30:27.849Z,5.00
2022-12-31T19:33:13.754Z,5.20
2022-12-31T19:36:02.372Z,5.50
2022-12-31T19:38:47.672Z,5.38
2022-12-31T19:41:33.475Z,5.18
2022-12-31T19:44:19.849Z,4.70
2022-12-31T19:47:05.347Z,10.60
2022-12-31T19:49:51.248Z,5.22
2022-12-31T19:52:39.160Z,4.47
2022-12-31T19:55:26.318Z,5.20
2022-12-31T19:58:25.282Z,5.50
2022-12-31T20:01:20.154Z,7.00
2022-12-31T20:04:07.501Z,5.97
2022-12-31T20:06:53.281Z,6.10
2022-12-31T20:09:38.550Z,6.57
2022-12-31T20:12:23.769Z,6.70
2022-12-31T20:15:09.753Z,6.13
2022-12-31T20:17:57.720Z,5.57
2022-12-31T20:20:53.391Z,5.90
2022-12-31T20:23:40.795Z,6.28
2022-12-31T20:26:36.755Z,6.57
2022-12-31T20:29:22.409Z,7.47
2022-12-31T20:32:09.956Z,6.97
2022-12-31T20:34:55.845Z,6.90
2022-12-31T20:37:41.426Z,6.32
2022-12-31T20:40:26.666Z,6.90
2022-12-31T20:43:12.494Z,5.38
2022-12-31T20:45:58.050Z,5.68
2022-12-31T20:48:45.681Z,5.43
2022-12-31T20:51:35.556Z,8.07
2022-12-31T20:54:25.092Z,8.85
2022-12-31T20:57:10.594Z,6.68
2022-12-31T20:59:55.937Z,5.80
2022-12-31T21:02:43.285Z,9.63
2022-12-31T21:05:30.526Z,6.88
2022-12-31T21:08:16.442Z,8.07
2022-12-31T21:11:02.652Z,7.40
2022-12-31T21:13:48.238Z,6.43
2022-12-31T21:16:34.161Z,9.27
2022-12-31T21:19:20.005Z,10.27
2022-12-31T21:22:05.340Z,7.95
2022-12-31T21:24:51.882Z,6.65
2022-12-31T21:27:37.033Z,7.25
2022-12-31T21:30:22.530Z,7.03
2022-12-31T21:33:09.079Z,5.90
2022-12-31T21:35:56.547Z,7.55
2022-12-31T21:38:45.233Z,7.35
2022-12-31T21:41:49.269Z,7.78
2022-12-31T21:44:34.732Z,8.32
2022-12-31T21:47:46.986Z,7.57
2022-12-31T21:50:33.598Z,6.85
2022-12-31T21:53:25.404Z,9.35
2022-12-31T21:56:14.781Z,8.23
2022-12-31T21:59:18.264Z,7.95
2022-12-31T22:02:27.722Z,7.30
2022-12-31T22:05:21.406Z,7.53
2022-12-31T22:08:10.004Z,7.32
2022-12-31T22:10:56.125Z,5.30
2022-12-31T22:13:42.048Z,6.20
2022-12-31T22:16:27.603Z,5.70
2022-12-31T22:19:13.215Z,8.93
2022-12-31T22:21:58.622Z,4.88
2022-12-31T22:24:43.959Z,5.72
2022-12-31T22:27:30.089Z,6.10
2022-12-31T22:30:15.655Z,6.88
2022-12-31T22:33:00.911Z,5.50
2022-12-31T22:36:04.668Z,6.38
2022-12-31T22:38:53.988Z,6.35
2022-12-31T22:41:41.504Z,6.95
2022-12-31T22:44:27.170Z,7.07
2022-12-31T22:47:12.577Z,6.93
2022-12-31T22:49:57.976Z,6.07
2022-12-31T22:52:43.350Z,6.72
2022-12-31T22:55:28.859Z,6.90
2022-12-31T22:58:14.504Z,7.40
2022-12-31T23:01:15.364Z,10.40
2022-12-31T23:04:01.285Z,22.95
2022-12-31T23:06:49.627Z,33.83
2022-12-31T23:09:55.288Z,51.40
2022-12-31T23:12:40.472Z,62.25
2022-12-31T23:15:44.395Z,45.25
2022-12-31T23:18:48.362Z,41.55
2022-12-31T23:21:52.353Z,51.22
2022-12-31T23:24:38.273Z,44.20
2022-12-31T23:27:23.944Z,50.28
2022-12-31T23:30:10.111Z,41.08
2022-12-31T23:32:55.713Z,38.10
2022-12-31T23:35:42.386Z,56.90
2022-12-31T23:38:30.537Z,42.95
2022-12-31T23:41:19.498Z,44.67
2022-12-31T23:44:04.936Z,32.20
2022-12-31T23:46:50.054Z,37.38
2022-12-31T23:49:35.858Z,24.98
2022-12-31T23:52:21.314Z,31.98
2022-12-31T23:55:09.605Z,19.73
2022-12-31T23:57:55.318Z,26.75
